LFMK/CCF METAR and TAF weather

Enter ICAO airport designator
Station Type Date Time Source
LFMK METAR 2023/01/29 19:30 UTC NOAA

LFMK 291930Z AUTO 28006KT 9999 OVC042 03/M00 Q1029


Station Type Date Time Source
LFMK Decoded METAR 2023/01/29 19:30 UTC NOAA

Carcassonne, France (LFMK) 43-13N 002-19E 130M
Jan 29, 2023 - 02:30 PM EST / 2023.01.29 1930 UTC
Wind: from the W (280 degrees) at 7 MPH (6 KT):0
Visibility: greater than 7 mile(s):0
Sky conditions: overcast
Temperature: 37 F (3 C)
Dew Point: 32 F (0 C)
Relative Humidity: 80%
Pressure (altimeter): 30.39 in. Hg (1029 hPa)
ob: LFMK 291930Z AUTO 28006KT 9999 OVC042 03/M00 Q1029
cycle: 19

Station Type Date Time Source
LFMK TAF 2023/01/29 18:15 UTC NOAA

TAF TAF LFMK 291811Z 2918/3015 CNL

Example: see airport list